sensor_id;sensor_type;location;lat;lon;timestamp;P1;durP1;ratioP1;P2;durP2;ratioP2
48534;SDS011;34323;52.022;5.686;2024-03-08T00:00:43;32.63;;;15.30;;
48534;SDS011;34323;52.022;5.686;2024-03-08T00:03:09;30.75;;;15.05;;
48534;SDS011;34323;52.022;5.686;2024-03-08T00:05:35;34.42;;;15.18;;
48534;SDS011;34323;52.022;5.686;2024-03-08T00:08:05;37.80;;;16.08;;
48534;SDS011;34323;52.022;5.686;2024-03-08T00:10:34;32.67;;;15.70;;
48534;SDS011;34323;52.022;5.686;2024-03-08T00:13:01;33.60;;;14.65;;
48534;SDS011;34323;52.022;5.686;2024-03-08T00:15:29;33.40;;;16.63;;
48534;SDS011;34323;52.022;5.686;2024-03-08T00:17:57;29.35;;;14.10;;
48534;SDS011;34323;52.022;5.686;2024-03-08T00:20:23;31.45;;;13.65;;
48534;SDS011;34323;52.022;5.686;2024-03-08T00:22:49;30.45;;;15.57;;
48534;SDS011;34323;52.022;5.686;2024-03-08T00:25:16;31.02;;;16.00;;
48534;SDS011;34323;52.022;5.686;2024-03-08T00:27:42;29.00;;;15.60;;
48534;SDS011;34323;52.022;5.686;2024-03-08T00:30:08;32.72;;;15.00;;
48534;SDS011;34323;52.022;5.686;2024-03-08T00:32:34;29.33;;;14.65;;
48534;SDS011;34323;52.022;5.686;2024-03-08T00:35:01;34.25;;;14.70;;
48534;SDS011;34323;52.022;5.686;2024-03-08T00:37:27;33.50;;;15.35;;
48534;SDS011;34323;52.022;5.686;2024-03-08T00:39:53;36.83;;;14.98;;
48534;SDS011;34323;52.022;5.686;2024-03-08T00:42:19;34.25;;;15.35;;
48534;SDS011;34323;52.022;5.686;2024-03-08T00:44:46;30.80;;;14.82;;
48534;SDS011;34323;52.022;5.686;2024-03-08T00:47:13;32.75;;;16.20;;
48534;SDS011;34323;52.022;5.686;2024-03-08T00:49:41;31.13;;;15.18;;
48534;SDS011;34323;52.022;5.686;2024-03-08T00:52:07;30.83;;;15.05;;
48534;SDS011;34323;52.022;5.686;2024-03-08T00:54:33;32.28;;;14.85;;
48534;SDS011;34323;52.022;5.686;2024-03-08T00:57:01;30.52;;;13.60;;
48534;SDS011;34323;52.022;5.686;2024-03-08T00:59:31;29.40;;;14.93;;
48534;SDS011;34323;52.022;5.686;2024-03-08T01:01:58;38.65;;;14.73;;
48534;SDS011;34323;52.022;5.686;2024-03-08T01:04:25;33.28;;;15.07;;
48534;SDS011;34323;52.022;5.686;2024-03-08T01:06:54;31.10;;;14.85;;
48534;SDS011;34323;52.022;5.686;2024-03-08T01:09:21;32.65;;;14.73;;
48534;SDS011;34323;52.022;5.686;2024-03-08T01:11:48;33.65;;;14.93;;
48534;SDS011;34323;52.022;5.686;2024-03-08T01:14:14;28.92;;;14.95;;
48534;SDS011;34323;52.022;5.686;2024-03-08T01:16:40;29.77;;;14.68;;
48534;SDS011;34323;52.022;5.686;2024-03-08T01:19:06;27.05;;;14.43;;
48534;SDS011;34323;52.022;5.686;2024-03-08T01:21:32;32.13;;;14.68;;
48534;SDS011;34323;52.022;5.686;2024-03-08T01:23:58;31.40;;;15.07;;
48534;SDS011;34323;52.022;5.686;2024-03-08T01:26:25;33.40;;;16.67;;
48534;SDS011;34323;52.022;5.686;2024-03-08T01:28:51;30.58;;;14.88;;
48534;SDS011;34323;52.022;5.686;2024-03-08T01:31:17;32.90;;;16.23;;
48534;SDS011;34323;52.022;5.686;2024-03-08T01:33:42;34.67;;;16.15;;
48534;SDS011;34323;52.022;5.686;2024-03-08T01:36:08;31.98;;;14.98;;
48534;SDS011;34323;52.022;5.686;2024-03-08T01:38:34;37.42;;;15.80;;
48534;SDS011;34323;52.022;5.686;2024-03-08T01:41:01;37.75;;;17.35;;
48534;SDS011;34323;52.022;5.686;2024-03-08T01:43:28;35.20;;;15.95;;
48534;SDS011;34323;52.022;5.686;2024-03-08T01:45:54;28.20;;;15.38;;
48534;SDS011;34323;52.022;5.686;2024-03-08T01:48:24;33.83;;;15.27;;
48534;SDS011;34323;52.022;5.686;2024-03-08T01:50:51;33.40;;;14.32;;
48534;SDS011;34323;52.022;5.686;2024-03-08T01:53:18;33.15;;;16.08;;
48534;SDS011;34323;52.022;5.686;2024-03-08T01:55:44;29.75;;;14.77;;
48534;SDS011;34323;52.022;5.686;2024-03-08T01:58:13;30.33;;;16.05;;
48534;SDS011;34323;52.022;5.686;2024-03-08T02:00:44;29.05;;;16.30;;
48534;SDS011;34323;52.022;5.686;2024-03-08T02:03:11;35.58;;;16.30;;
48534;SDS011;34323;52.022;5.686;2024-03-08T02:05:38;28.58;;;14.88;;
48534;SDS011;34323;52.022;5.686;2024-03-08T02:08:06;33.22;;;15.00;;
48534;SDS011;34323;52.022;5.686;2024-03-08T02:10:38;30.42;;;15.05;;
48534;SDS011;34323;52.022;5.686;2024-03-08T02:13:04;33.95;;;15.10;;
48534;SDS011;34323;52.022;5.686;2024-03-08T02:18:16;31.13;;;15.05;;
48534;SDS011;34323;52.022;5.686;2024-03-08T02:20:42;30.65;;;16.23;;
48534;SDS011;34323;52.022;5.686;2024-03-08T02:23:08;33.65;;;15.05;;
48534;SDS011;34323;52.022;5.686;2024-03-08T02:25:35;34.35;;;15.82;;
48534;SDS011;34323;52.022;5.686;2024-03-08T02:28:01;25.42;;;14.73;;
48534;SDS011;34323;52.022;5.686;2024-03-08T02:30:27;29.77;;;15.60;;
48534;SDS011;34323;52.022;5.686;2024-03-08T02:32:54;30.02;;;15.70;;
48534;SDS011;34323;52.022;5.686;2024-03-08T02:35:21;33.85;;;16.10;;
48534;SDS011;34323;52.022;5.686;2024-03-08T02:37:47;39.58;;;17.13;;
48534;SDS011;34323;52.022;5.686;2024-03-08T02:40:13;30.50;;;16.33;;
48534;SDS011;34323;52.022;5.686;2024-03-08T02:42:39;32.10;;;15.95;;
48534;SDS011;34323;52.022;5.686;2024-03-08T02:45:05;28.50;;;16.00;;
48534;SDS011;34323;52.022;5.686;2024-03-08T02:47:31;34.03;;;16.70;;
48534;SDS011;34323;52.022;5.686;2024-03-08T02:49:57;33.28;;;16.48;;
48534;SDS011;34323;52.022;5.686;2024-03-08T02:52:23;34.47;;;16.30;;
48534;SDS011;34323;52.022;5.686;2024-03-08T02:54:49;32.88;;;17.10;;
48534;SDS011;34323;52.022;5.686;2024-03-08T02:57:15;32.53;;;16.27;;
48534;SDS011;34323;52.022;5.686;2024-03-08T02:59:41;28.95;;;16.00;;
48534;SDS011;34323;52.022;5.686;2024-03-08T03:02:07;38.72;;;19.00;;
48534;SDS011;34323;52.022;5.686;2024-03-08T03:04:35;29.58;;;15.38;;
48534;SDS011;34323;52.022;5.686;2024-03-08T03:07:01;34.72;;;17.38;;
48534;SDS011;34323;52.022;5.686;2024-03-08T03:09:27;34.47;;;15.77;;
48534;SDS011;34323;52.022;5.686;2024-03-08T03:11:53;38.97;;;17.75;;
48534;SDS011;34323;52.022;5.686;2024-03-08T03:14:20;30.45;;;16.40;;
48534;SDS011;34323;52.022;5.686;2024-03-08T03:16:47;38.10;;;16.67;;
48534;SDS011;34323;52.022;5.686;2024-03-08T03:19:13;32.55;;;16.55;;
48534;SDS011;34323;52.022;5.686;2024-03-08T03:21:40;35.75;;;17.17;;
48534;SDS011;34323;52.022;5.686;2024-03-08T03:24:08;36.70;;;16.15;;
48534;SDS011;34323;52.022;5.686;2024-03-08T03:26:38;29.52;;;16.00;;
48534;SDS011;34323;52.022;5.686;2024-03-08T03:29:05;32.00;;;15.60;;
48534;SDS011;34323;52.022;5.686;2024-03-08T03:31:33;32.08;;;16.20;;
48534;SDS011;34323;52.022;5.686;2024-03-08T03:34:00;28.17;;;15.55;;
48534;SDS011;34323;52.022;5.686;2024-03-08T03:36:32;33.95;;;15.80;;
48534;SDS011;34323;52.022;5.686;2024-03-08T03:39:00;33.20;;;16.05;;
48534;SDS011;34323;52.022;5.686;2024-03-08T03:41:41;31.10;;;16.08;;
48534;SDS011;34323;52.022;5.686;2024-03-08T03:44:09;29.40;;;16.77;;
48534;SDS011;34323;52.022;5.686;2024-03-08T03:46:35;29.08;;;16.80;;
48534;SDS011;34323;52.022;5.686;2024-03-08T03:49:01;30.10;;;15.52;;
48534;SDS011;34323;52.022;5.686;2024-03-08T03:51:28;28.40;;;14.77;;
48534;SDS011;34323;52.022;5.686;2024-03-08T03:53:55;30.73;;;15.57;;
48534;SDS011;34323;52.022;5.686;2024-03-08T03:56:26;32.85;;;17.55;;
48534;SDS011;34323;52.022;5.686;2024-03-08T03:58:52;28.88;;;16.33;;
48534;SDS011;34323;52.022;5.686;2024-03-08T04:01:17;37.28;;;18.33;;
48534;SDS011;34323;52.022;5.686;2024-03-08T04:03:44;32.75;;;17.20;;
48534;SDS011;34323;52.022;5.686;2024-03-08T04:06:10;34.75;;;17.15;;
48534;SDS011;34323;52.022;5.686;2024-03-08T04:08:36;26.20;;;14.80;;
48534;SDS011;34323;52.022;5.686;2024-03-08T04:11:02;37.55;;;16.70;;
48534;SDS011;34323;52.022;5.686;2024-03-08T04:13:28;34.65;;;17.23;;
48534;SDS011;34323;52.022;5.686;2024-03-08T04:15:54;30.05;;;15.60;;
48534;SDS011;34323;52.022;5.686;2024-03-08T04:18:20;31.23;;;16.15;;
48534;SDS011;34323;52.022;5.686;2024-03-08T04:20:46;41.50;;;16.55;;
48534;SDS011;34323;52.022;5.686;2024-03-08T04:23:12;29.02;;;15.07;;
48534;SDS011;34323;52.022;5.686;2024-03-08T04:25:37;34.08;;;16.55;;
48534;SDS011;34323;52.022;5.686;2024-03-08T04:28:03;36.10;;;16.17;;
48534;SDS011;34323;52.022;5.686;2024-03-08T04:30:29;34.33;;;16.40;;
48534;SDS011;34323;52.022;5.686;2024-03-08T04:32:55;36.53;;;16.42;;
48534;SDS011;34323;52.022;5.686;2024-03-08T04:35:22;34.08;;;17.38;;
48534;SDS011;34323;52.022;5.686;2024-03-08T04:37:48;27.90;;;15.75;;
48534;SDS011;34323;52.022;5.686;2024-03-08T04:40:13;30.23;;;16.27;;
48534;SDS011;34323;52.022;5.686;2024-03-08T04:42:39;35.30;;;16.77;;
48534;SDS011;34323;52.022;5.686;2024-03-08T04:45:08;29.17;;;16.65;;
48534;SDS011;34323;52.022;5.686;2024-03-08T04:47:36;33.40;;;16.55;;
48534;SDS011;34323;52.022;5.686;2024-03-08T04:50:02;33.67;;;17.10;;
48534;SDS011;34323;52.022;5.686;2024-03-08T04:52:29;30.73;;;16.48;;
48534;SDS011;34323;52.022;5.686;2024-03-08T04:54:55;31.55;;;15.90;;
48534;SDS011;34323;52.022;5.686;2024-03-08T04:57:21;29.92;;;16.92;;
48534;SDS011;34323;52.022;5.686;2024-03-08T04:59:47;33.00;;;17.38;;
48534;SDS011;34323;52.022;5.686;2024-03-08T05:02:13;35.63;;;17.15;;
48534;SDS011;34323;52.022;5.686;2024-03-08T05:04:39;33.30;;;17.40;;
48534;SDS011;34323;52.022;5.686;2024-03-08T05:07:05;29.73;;;16.70;;
48534;SDS011;34323;52.022;5.686;2024-03-08T05:09:31;29.85;;;16.35;;
48534;SDS011;34323;52.022;5.686;2024-03-08T05:11:57;28.65;;;15.45;;
48534;SDS011;34323;52.022;5.686;2024-03-08T05:14:24;32.72;;;16.83;;
48534;SDS011;34323;52.022;5.686;2024-03-08T05:16:50;29.38;;;16.23;;
48534;SDS011;34323;52.022;5.686;2024-03-08T05:19:16;28.40;;;15.55;;
48534;SDS011;34323;52.022;5.686;2024-03-08T05:21:44;32.67;;;16.90;;
48534;SDS011;34323;52.022;5.686;2024-03-08T05:24:10;32.53;;;16.95;;
48534;SDS011;34323;52.022;5.686;2024-03-08T05:26:36;28.50;;;16.45;;
48534;SDS011;34323;52.022;5.686;2024-03-08T05:29:04;31.83;;;17.20;;
48534;SDS011;34323;52.022;5.686;2024-03-08T05:31:36;30.15;;;15.82;;
48534;SDS011;34323;52.022;5.686;2024-03-08T05:34:09;28.83;;;16.75;;
48534;SDS011;34323;52.022;5.686;2024-03-08T05:36:35;33.58;;;16.63;;
48534;SDS011;34323;52.022;5.686;2024-03-08T05:39:01;33.97;;;17.30;;
48534;SDS011;34323;52.022;5.686;2024-03-08T05:41:27;26.95;;;15.30;;
48534;SDS011;34323;52.022;5.686;2024-03-08T05:43:53;28.33;;;16.85;;
48534;SDS011;34323;52.022;5.686;2024-03-08T05:46:19;32.40;;;17.75;;
48534;SDS011;34323;52.022;5.686;2024-03-08T05:48:45;34.00;;;17.52;;
48534;SDS011;34323;52.022;5.686;2024-03-08T05:51:11;33.15;;;17.50;;
48534;SDS011;34323;52.022;5.686;2024-03-08T05:53:37;29.65;;;16.48;;
48534;SDS011;34323;52.022;5.686;2024-03-08T05:56:03;34.55;;;17.60;;
48534;SDS011;34323;52.022;5.686;2024-03-08T05:58:29;30.48;;;16.90;;
48534;SDS011;34323;52.022;5.686;2024-03-08T06:00:57;32.17;;;17.55;;
48534;SDS011;34323;52.022;5.686;2024-03-08T06:03:23;33.72;;;17.92;;
48534;SDS011;34323;52.022;5.686;2024-03-08T06:05:50;31.95;;;18.48;;
48534;SDS011;34323;52.022;5.686;2024-03-08T06:08:16;31.80;;;17.38;;
48534;SDS011;34323;52.022;5.686;2024-03-08T06:10:41;32.50;;;16.98;;
48534;SDS011;34323;52.022;5.686;2024-03-08T06:13:07;40.13;;;18.55;;
48534;SDS011;34323;52.022;5.686;2024-03-08T06:15:33;36.00;;;17.80;;
48534;SDS011;34323;52.022;5.686;2024-03-08T06:17:59;33.75;;;18.15;;
48534;SDS011;34323;52.022;5.686;2024-03-08T06:20:26;32.03;;;17.90;;
48534;SDS011;34323;52.022;5.686;2024-03-08T06:22:52;34.67;;;18.67;;
48534;SDS011;34323;52.022;5.686;2024-03-08T06:25:18;35.17;;;17.95;;
48534;SDS011;34323;52.022;5.686;2024-03-08T06:27:44;38.88;;;19.80;;
48534;SDS011;34323;52.022;5.686;2024-03-08T06:30:11;33.53;;;18.27;;
48534;SDS011;34323;52.022;5.686;2024-03-08T06:32:38;35.15;;;18.33;;
48534;SDS011;34323;52.022;5.686;2024-03-08T06:35:04;36.05;;;18.95;;
48534;SDS011;34323;52.022;5.686;2024-03-08T06:37:35;35.13;;;18.00;;
48534;SDS011;34323;52.022;5.686;2024-03-08T06:40:01;34.33;;;18.85;;
48534;SDS011;34323;52.022;5.686;2024-03-08T06:42:33;37.08;;;18.63;;
48534;SDS011;34323;52.022;5.686;2024-03-08T06:45:00;37.10;;;18.90;;
48534;SDS011;34323;52.022;5.686;2024-03-08T06:47:30;35.35;;;18.17;;
48534;SDS011;34323;52.022;5.686;2024-03-08T06:49:59;34.72;;;18.65;;
48534;SDS011;34323;52.022;5.686;2024-03-08T06:52:25;35.17;;;18.75;;
48534;SDS011;34323;52.022;5.686;2024-03-08T06:54:51;32.58;;;17.73;;
48534;SDS011;34323;52.022;5.686;2024-03-08T06:57:17;40.58;;;20.42;;
48534;SDS011;34323;52.022;5.686;2024-03-08T06:59:47;31.60;;;17.80;;
48534;SDS011;34323;52.022;5.686;2024-03-08T07:02:13;33.05;;;18.40;;
48534;SDS011;34323;52.022;5.686;2024-03-08T07:04:39;41.58;;;20.95;;
48534;SDS011;34323;52.022;5.686;2024-03-08T07:07:05;35.72;;;19.00;;
48534;SDS011;34323;52.022;5.686;2024-03-08T07:09:34;34.10;;;18.90;;
48534;SDS011;34323;52.022;5.686;2024-03-08T07:12:01;39.45;;;19.27;;
48534;SDS011;34323;52.022;5.686;2024-03-08T07:14:27;33.33;;;18.23;;
48534;SDS011;34323;52.022;5.686;2024-03-08T07:16:53;37.25;;;18.48;;
48534;SDS011;34323;52.022;5.686;2024-03-08T07:19:19;33.45;;;18.17;;
48534;SDS011;34323;52.022;5.686;2024-03-08T07:21:46;37.75;;;19.23;;
48534;SDS011;34323;52.022;5.686;2024-03-08T07:24:13;43.63;;;19.75;;
48534;SDS011;34323;52.022;5.686;2024-03-08T07:26:42;39.25;;;20.48;;
48534;SDS011;34323;52.022;5.686;2024-03-08T07:29:08;37.25;;;19.40;;
48534;SDS011;34323;52.022;5.686;2024-03-08T07:31:34;45.53;;;20.20;;
48534;SDS011;34323;52.022;5.686;2024-03-08T07:34:15;34.13;;;18.63;;
48534;SDS011;34323;52.022;5.686;2024-03-08T07:36:42;38.92;;;18.90;;
48534;SDS011;34323;52.022;5.686;2024-03-08T07:39:07;35.25;;;19.98;;
48534;SDS011;34323;52.022;5.686;2024-03-08T07:41:37;34.83;;;19.75;;
48534;SDS011;34323;52.022;5.686;2024-03-08T07:44:05;36.25;;;19.80;;
48534;SDS011;34323;52.022;5.686;2024-03-08T07:46:32;35.15;;;18.75;;
48534;SDS011;34323;52.022;5.686;2024-03-08T07:48:59;41.42;;;19.45;;
48534;SDS011;34323;52.022;5.686;2024-03-08T07:51:25;38.85;;;19.77;;
48534;SDS011;34323;52.022;5.686;2024-03-08T07:53:51;42.65;;;20.77;;
48534;SDS011;34323;52.022;5.686;2024-03-08T07:56:17;37.88;;;20.02;;
48534;SDS011;34323;52.022;5.686;2024-03-08T07:58:44;37.55;;;20.50;;
48534;SDS011;34323;52.022;5.686;2024-03-08T08:01:17;36.22;;;19.25;;
48534;SDS011;34323;52.022;5.686;2024-03-08T08:03:43;36.63;;;20.73;;
48534;SDS011;34323;52.022;5.686;2024-03-08T08:06:10;36.40;;;19.48;;
48534;SDS011;34323;52.022;5.686;2024-03-08T08:08:43;36.60;;;19.92;;
48534;SDS011;34323;52.022;5.686;2024-03-08T08:11:10;37.63;;;21.00;;
48534;SDS011;34323;52.022;5.686;2024-03-08T08:13:40;38.80;;;20.75;;
48534;SDS011;34323;52.022;5.686;2024-03-08T08:16:08;38.13;;;20.13;;
48534;SDS011;34323;52.022;5.686;2024-03-08T08:18:35;43.15;;;22.05;;
48534;SDS011;34323;52.022;5.686;2024-03-08T08:21:02;40.00;;;20.17;;
48534;SDS011;34323;52.022;5.686;2024-03-08T08:23:29;39.28;;;20.77;;
48534;SDS011;34323;52.022;5.686;2024-03-08T08:25:55;40.42;;;20.80;;
48534;SDS011;34323;52.022;5.686;2024-03-08T08:28:21;47.78;;;21.45;;
48534;SDS011;34323;52.022;5.686;2024-03-08T08:30:47;42.08;;;21.17;;
48534;SDS011;34323;52.022;5.686;2024-03-08T08:33:14;40.33;;;21.85;;
48534;SDS011;34323;52.022;5.686;2024-03-08T08:35:40;45.58;;;21.35;;
48534;SDS011;34323;52.022;5.686;2024-03-08T08:38:06;35.72;;;21.52;;
48534;SDS011;34323;52.022;5.686;2024-03-08T08:40:35;36.58;;;19.75;;
48534;SDS011;34323;52.022;5.686;2024-03-08T08:43:04;43.10;;;21.85;;
48534;SDS011;34323;52.022;5.686;2024-03-08T08:45:30;35.95;;;19.73;;
48534;SDS011;34323;52.022;5.686;2024-03-08T08:47:56;36.55;;;20.92;;
48534;SDS011;34323;52.022;5.686;2024-03-08T08:50:25;35.30;;;19.95;;
48534;SDS011;34323;52.022;5.686;2024-03-08T08:52:53;38.55;;;20.13;;
48534;SDS011;34323;52.022;5.686;2024-03-08T08:55:19;37.35;;;19.38;;
48534;SDS011;34323;52.022;5.686;2024-03-08T08:57:52;35.90;;;19.88;;
48534;SDS011;34323;52.022;5.686;2024-03-08T09:00:21;38.13;;;20.20;;
48534;SDS011;34323;52.022;5.686;2024-03-08T09:02:52;35.95;;;20.20;;
48534;SDS011;34323;52.022;5.686;2024-03-08T09:05:20;31.98;;;19.60;;
48534;SDS011;34323;52.022;5.686;2024-03-08T09:07:46;39.88;;;20.13;;
48534;SDS011;34323;52.022;5.686;2024-03-08T09:10:12;34.15;;;19.60;;
48534;SDS011;34323;52.022;5.686;2024-03-08T09:12:39;34.00;;;19.90;;
48534;SDS011;34323;52.022;5.686;2024-03-08T09:15:05;34.25;;;19.88;;
48534;SDS011;34323;52.022;5.686;2024-03-08T09:17:36;35.22;;;19.10;;
48534;SDS011;34323;52.022;5.686;2024-03-08T09:20:09;33.30;;;20.95;;
48534;SDS011;34323;52.022;5.686;2024-03-08T09:22:35;40.20;;;20.70;;
48534;SDS011;34323;52.022;5.686;2024-03-08T09:25:02;38.95;;;18.95;;
48534;SDS011;34323;52.022;5.686;2024-03-08T09:27:30;40.53;;;19.77;;
48534;SDS011;34323;52.022;5.686;2024-03-08T09:29:56;33.53;;;20.15;;
48534;SDS011;34323;52.022;5.686;2024-03-08T09:32:22;36.03;;;20.92;;
48534;SDS011;34323;52.022;5.686;2024-03-08T09:34:47;36.38;;;19.88;;
48534;SDS011;34323;52.022;5.686;2024-03-08T09:37:13;38.88;;;21.15;;
48534;SDS011;34323;52.022;5.686;2024-03-08T09:39:39;35.47;;;19.20;;
48534;SDS011;34323;52.022;5.686;2024-03-08T09:42:05;34.28;;;18.92;;
48534;SDS011;34323;52.022;5.686;2024-03-08T09:44:31;30.52;;;18.48;;
48534;SDS011;34323;52.022;5.686;2024-03-08T09:46:58;31.70;;;18.40;;
48534;SDS011;34323;52.022;5.686;2024-03-08T09:49:27;30.45;;;17.88;;
48534;SDS011;34323;52.022;5.686;2024-03-08T09:51:53;31.15;;;18.13;;
48534;SDS011;34323;52.022;5.686;2024-03-08T09:54:21;37.03;;;17.52;;
48534;SDS011;34323;52.022;5.686;2024-03-08T09:56:47;29.15;;;16.77;;
48534;SDS011;34323;52.022;5.686;2024-03-08T09:59:16;34.20;;;19.02;;
48534;SDS011;34323;52.022;5.686;2024-03-08T10:01:48;34.80;;;18.48;;
48534;SDS011;34323;52.022;5.686;2024-03-08T10:04:13;31.90;;;18.92;;
48534;SDS011;34323;52.022;5.686;2024-03-08T10:06:40;34.05;;;19.23;;
48534;SDS011;34323;52.022;5.686;2024-03-08T10:09:06;34.95;;;18.08;;
48534;SDS011;34323;52.022;5.686;2024-03-08T10:11:33;29.98;;;18.48;;
48534;SDS011;34323;52.022;5.686;2024-03-08T10:14:00;28.90;;;17.42;;
48534;SDS011;34323;52.022;5.686;2024-03-08T10:16:27;29.73;;;17.15;;
48534;SDS011;34323;52.022;5.686;2024-03-08T10:18:54;27.80;;;17.02;;
48534;SDS011;34323;52.022;5.686;2024-03-08T10:21:21;29.90;;;17.73;;
48534;SDS011;34323;52.022;5.686;2024-03-08T10:23:48;30.48;;;17.55;;
48534;SDS011;34323;52.022;5.686;2024-03-08T10:26:14;34.20;;;18.00;;
48534;SDS011;34323;52.022;5.686;2024-03-08T10:28:42;31.85;;;17.17;;
48534;SDS011;34323;52.022;5.686;2024-03-08T10:33:40;31.05;;;17.38;;
48534;SDS011;34323;52.022;5.686;2024-03-08T10:36:07;24.20;;;16.08;;
48534;SDS011;34323;52.022;5.686;2024-03-08T10:38:37;25.42;;;15.43;;
48534;SDS011;34323;52.022;5.686;2024-03-08T10:41:07;24.63;;;15.70;;
48534;SDS011;34323;52.022;5.686;2024-03-08T10:46:25;24.88;;;15.60;;
48534;SDS011;34323;52.022;5.686;2024-03-08T10:49:05;29.10;;;16.15;;
48534;SDS011;34323;52.022;5.686;2024-03-08T10:51:36;25.70;;;15.50;;
48534;SDS011;34323;52.022;5.686;2024-03-08T10:54:03;23.52;;;13.95;;
48534;SDS011;34323;52.022;5.686;2024-03-08T10:56:32;25.20;;;15.80;;
48534;SDS011;34323;52.022;5.686;2024-03-08T10:58:58;24.60;;;15.00;;
48534;SDS011;34323;52.022;5.686;2024-03-08T11:01:23;24.48;;;14.93;;
48534;SDS011;34323;52.022;5.686;2024-03-08T11:03:51;29.50;;;16.13;;
48534;SDS011;34323;52.022;5.686;2024-03-08T11:08:48;20.63;;;13.90;;
48534;SDS011;34323;52.022;5.686;2024-03-08T11:13:57;23.38;;;13.77;;
48534;SDS011;34323;52.022;5.686;2024-03-08T11:19:00;25.55;;;16.27;;
48534;SDS011;34323;52.022;5.686;2024-03-08T11:21:30;22.35;;;13.55;;
48534;SDS011;34323;52.022;5.686;2024-03-08T11:24:11;21.55;;;14.07;;
48534;SDS011;34323;52.022;5.686;2024-03-08T11:26:38;24.95;;;15.38;;
48534;SDS011;34323;52.022;5.686;2024-03-08T11:32:03;22.67;;;14.02;;
48534;SDS011;34323;52.022;5.686;2024-03-08T11:34:36;21.55;;;14.05;;
48534;SDS011;34323;52.022;5.686;2024-03-08T11:37:19;19.67;;;12.43;;
48534;SDS011;34323;52.022;5.686;2024-03-08T11:39:47;21.10;;;13.32;;
48534;SDS011;34323;52.022;5.686;2024-03-08T11:42:14;26.02;;;13.43;;
48534;SDS011;34323;52.022;5.686;2024-03-08T11:44:42;19.50;;;12.77;;
48534;SDS011;34323;52.022;5.686;2024-03-08T11:47:11;19.90;;;12.50;;
48534;SDS011;34323;52.022;5.686;2024-03-08T11:49:40;21.90;;;13.35;;
48534;SDS011;34323;52.022;5.686;2024-03-08T11:52:13;23.88;;;13.40;;
48534;SDS011;34323;52.022;5.686;2024-03-08T11:55:01;21.73;;;13.82;;
48534;SDS011;34323;52.022;5.686;2024-03-08T11:57:26;19.67;;;13.10;;
48534;SDS011;34323;52.022;5.686;2024-03-08T11:59:53;20.75;;;12.52;;
48534;SDS011;34323;52.022;5.686;2024-03-08T12:02:22;24.55;;;13.55;;
48534;SDS011;34323;52.022;5.686;2024-03-08T12:04:55;25.10;;;12.93;;
48534;SDS011;34323;52.022;5.686;2024-03-08T12:07:22;24.45;;;12.68;;
48534;SDS011;34323;52.022;5.686;2024-03-08T12:12:48;23.85;;;12.93;;
48534;SDS011;34323;52.022;5.686;2024-03-08T12:15:16;21.05;;;12.85;;
48534;SDS011;34323;52.022;5.686;2024-03-08T12:17:47;17.23;;;11.30;;
48534;SDS011;34323;52.022;5.686;2024-03-08T12:20:19;19.85;;;12.43;;
48534;SDS011;34323;52.022;5.686;2024-03-08T12:22:47;21.15;;;13.35;;
48534;SDS011;34323;52.022;5.686;2024-03-08T12:25:14;20.40;;;12.88;;
48534;SDS011;34323;52.022;5.686;2024-03-08T12:27:41;22.25;;;12.25;;
48534;SDS011;34323;52.022;5.686;2024-03-08T12:30:24;19.75;;;11.98;;
48534;SDS011;34323;52.022;5.686;2024-03-08T12:32:57;18.00;;;11.90;;
48534;SDS011;34323;52.022;5.686;2024-03-08T12:35:26;16.60;;;12.07;;
48534;SDS011;34323;52.022;5.686;2024-03-08T12:37:54;21.08;;;12.90;;
48534;SDS011;34323;52.022;5.686;2024-03-08T12:40:31;18.33;;;12.18;;
48534;SDS011;34323;52.022;5.686;2024-03-08T12:42:59;18.52;;;11.90;;
48534;SDS011;34323;52.022;5.686;2024-03-08T12:45:26;22.10;;;13.85;;
48534;SDS011;34323;52.022;5.686;2024-03-08T12:47:52;17.08;;;12.07;;
48534;SDS011;34323;52.022;5.686;2024-03-08T12:50:19;20.05;;;12.60;;
48534;SDS011;34323;52.022;5.686;2024-03-08T12:52:46;23.02;;;13.40;;
48534;SDS011;34323;52.022;5.686;2024-03-08T12:55:13;23.83;;;12.68;;
48534;SDS011;34323;52.022;5.686;2024-03-08T12:57:43;21.27;;;12.93;;
48534;SDS011;34323;52.022;5.686;2024-03-08T13:00:10;19.77;;;12.50;;
48534;SDS011;34323;52.022;5.686;2024-03-08T13:02:47;22.02;;;13.43;;
48534;SDS011;34323;52.022;5.686;2024-03-08T13:05:13;17.83;;;13.18;;
48534;SDS011;34323;52.022;5.686;2024-03-08T13:07:39;25.90;;;14.57;;
48534;SDS011;34323;52.022;5.686;2024-03-08T13:10:14;22.13;;;14.02;;
48534;SDS011;34323;52.022;5.686;2024-03-08T13:12:41;20.48;;;13.05;;
48534;SDS011;34323;52.022;5.686;2024-03-08T13:15:08;17.90;;;12.90;;
48534;SDS011;34323;52.022;5.686;2024-03-08T13:17:37;21.70;;;13.70;;
48534;SDS011;34323;52.022;5.686;2024-03-08T13:20:05;22.83;;;13.73;;
48534;SDS011;34323;52.022;5.686;2024-03-08T13:22:41;21.75;;;13.60;;
48534;SDS011;34323;52.022;5.686;2024-03-08T13:25:07;23.13;;;13.50;;
48534;SDS011;34323;52.022;5.686;2024-03-08T13:27:39;18.10;;;12.82;;
48534;SDS011;34323;52.022;5.686;2024-03-08T13:30:08;22.08;;;14.70;;
48534;SDS011;34323;52.022;5.686;2024-03-08T13:32:41;23.00;;;14.35;;
48534;SDS011;34323;52.022;5.686;2024-03-08T13:35:11;20.90;;;14.45;;
48534;SDS011;34323;52.022;5.686;2024-03-08T13:37:40;17.38;;;13.52;;
48534;SDS011;34323;52.022;5.686;2024-03-08T13:40:07;16.17;;;12.48;;
48534;SDS011;34323;52.022;5.686;2024-03-08T13:42:42;18.27;;;14.23;;
48534;SDS011;34323;52.022;5.686;2024-03-08T13:45:08;18.25;;;14.23;;
48534;SDS011;34323;52.022;5.686;2024-03-08T13:47:41;15.85;;;12.95;;
48534;SDS011;34323;52.022;5.686;2024-03-08T13:50:07;18.20;;;13.75;;
48534;SDS011;34323;52.022;5.686;2024-03-08T13:52:37;16.88;;;13.85;;
48534;SDS011;34323;52.022;5.686;2024-03-08T13:55:04;19.10;;;13.60;;
48534;SDS011;34323;52.022;5.686;2024-03-08T13:57:31;20.95;;;13.63;;
48534;SDS011;34323;52.022;5.686;2024-03-08T13:59:57;18.88;;;14.07;;
48534;SDS011;34323;52.022;5.686;2024-03-08T14:02:24;21.33;;;13.95;;
48534;SDS011;34323;52.022;5.686;2024-03-08T14:04:56;19.92;;;13.48;;
48534;SDS011;34323;52.022;5.686;2024-03-08T14:07:22;16.35;;;13.23;;
48534;SDS011;34323;52.022;5.686;2024-03-08T14:09:51;15.95;;;13.52;;
48534;SDS011;34323;52.022;5.686;2024-03-08T14:12:18;18.85;;;13.88;;
48534;SDS011;34323;52.022;5.686;2024-03-08T14:14:44;18.05;;;13.68;;
48534;SDS011;34323;52.022;5.686;2024-03-08T14:17:10;18.00;;;12.57;;
48534;SDS011;34323;52.022;5.686;2024-03-08T14:19:41;16.08;;;14.23;;
48534;SDS011;34323;52.022;5.686;2024-03-08T14:22:06;19.00;;;12.75;;
48534;SDS011;34323;52.022;5.686;2024-03-08T14:24:32;16.55;;;13.55;;
48534;SDS011;34323;52.022;5.686;2024-03-08T14:27:00;16.75;;;13.52;;
48534;SDS011;34323;52.022;5.686;2024-03-08T14:29:28;17.48;;;13.43;;
48534;SDS011;34323;52.022;5.686;2024-03-08T14:31:57;18.85;;;13.75;;
48534;SDS011;34323;52.022;5.686;2024-03-08T14:34:24;16.52;;;12.80;;
48534;SDS011;34323;52.022;5.686;2024-03-08T14:36:57;17.65;;;13.75;;
48534;SDS011;34323;52.022;5.686;2024-03-08T14:39:23;15.45;;;12.73;;
48534;SDS011;34323;52.022;5.686;2024-03-08T14:41:57;19.13;;;13.35;;
48534;SDS011;34323;52.022;5.686;2024-03-08T14:44:23;16.40;;;13.40;;